Αρχική σελίδα
METAR-TAF:

METAR-TAF

Αεροδρόμια :

Φουντσάλ, Μαδέρα, Πορτογαλία

γεωγραφικό πλάτος: 32-41-52N, γεωγραφικό μήκος: 016-46-28W, υψόμετρο: 59 μ

Παρών καιρός

Η αναφορά έγινε 22 λεπτά πριν, στις 21:00 UTC
Άνεμος 15 kt από Β, μεταβλητός μεταξύ Β/BΔ και BA
Θερμοκρασία 22°C
Υγρασία 73%
Πίεση 1020 hPa
Ορατότητα 10 χλμ και άνω
Διάσπαρτα νέφη σε ύψος 1300 πόδια

METAR: LPMA 172100Z 01015KT 340V040 9999 SCT013 22/17 Q1020

Χρόνος: 22:22 (21:22 UTC)

Πρόγνωση Καιρού

Η αναφορά έγινε 4 ώρες και 22 λεπτά πριν, στις 17:00 UTC
Η πρόγνωση ισχύει από τις 17 στις 18 UTC έως τις 18 στις 18 UTC
Άνεμος 13 kt από Β/BA
Ορατότητα 10 χλμ και άνω
Διάσπαρτα νέφη σε ύψος 1500 πόδια
Προσωρινά
από 17 στις 18 UTC έως τις 18 στις 18 UTC
Άνεμος 18 kt από Β/BA με ριπές μέχρι 30 kt
Αρκετά νέφη σε ύψος 1500 πόδια

TAF: LPMA 171700Z 1718/1818 02013KT 9999 SCT015 TEMPO 1718/1818 02018G30KT BKN015

Μετεωρολογικές αναφορές και προγνώσεις για περισσότερα από 4000 αεροδρόμια (δελτία METAR και TAF).

Οι διαθέσιμοι σταθμοί απεικονίζονται στο χάρτη με κίτρινες και κόκκινες κουκκίδες.

Μετακινήστε το ποντίκι πάνω από τις κουκκίδες για να δείτε το όνομα του σταθμού.

Στη συνέχεια, κάντε κλικ για να δείτε τις μετεωρολογικές αναφορές και τις προγνώσεις καιρού.

Για να αλλάξετε το χάρτη: κάντε κλικ στα πράσινα κουμπιά με τον μαύρο σταυρό για να ζουμάρετε, στο πράσινο κουμπί με την παύλα για να αφαιρέσετε το ζουμ ή στα πράσινα βέλη για να αντιπαραβάλλετε χάρτες.


METAR-TAF: